createdAt,value
2023-05-10T10:10:37.920Z,3.63
2023-05-10T10:13:06.055Z,4.57
2023-05-10T10:15:34.624Z,5.03
2023-05-10T10:18:02.706Z,5.80
2023-05-10T10:20:30.537Z,5.03
2023-05-10T10:22:58.101Z,5.68
2023-05-10T10:25:26.588Z,5.72
2023-05-10T10:28:13.431Z,3.83
2023-05-10T10:30:44.004Z,5.97
2023-05-10T10:33:31.669Z,4.78
2023-05-10T10:36:01.475Z,7.95
2023-05-10T10:38:38.185Z,8.25
2023-05-10T10:41:11.805Z,4.43
2023-05-10T10:43:40.830Z,6.32
2023-05-10T10:46:16.057Z,8.00
2023-05-10T10:48:49.569Z,7.63
2023-05-10T10:51:17.693Z,5.28
2023-05-10T10:53:45.693Z,12.80
2023-05-10T10:56:16.465Z,9.30
2023-05-10T10:58:51.430Z,7.78
2023-05-10T11:01:20.623Z,7.90
2023-05-10T11:04:18.738Z,4.65
2023-05-10T11:06:46.503Z,7.53
2023-05-10T11:09:14.270Z,5.57
2023-05-10T11:11:53.201Z,10.13
2023-05-10T11:14:23.036Z,4.93
2023-05-10T11:16:52.943Z,5.22
2023-05-10T11:19:21.322Z,6.97
2023-05-10T11:21:50.428Z,10.02
2023-05-10T11:24:20.082Z,9.45
2023-05-10T11:26:51.590Z,7.47
2023-05-10T11:29:23.185Z,11.98
2023-05-10T11:31:52.309Z,11.00
2023-05-10T11:34:27.339Z,8.60
2023-05-10T11:36:56.805Z,10.70
2023-05-10T11:39:28.411Z,7.93
2023-05-10T11:41:56.792Z,7.60
2023-05-10T11:44:30.536Z,10.20
2023-05-10T11:46:59.990Z,5.65
2023-05-10T11:49:27.674Z,6.03
2023-05-10T11:52:05.335Z,8.20
2023-05-10T11:54:33.870Z,8.20
2023-05-10T11:57:01.669Z,5.50
2023-05-10T11:59:31.071Z,9.50
2023-05-10T12:01:58.984Z,9.30
2023-05-10T12:04:27.076Z,8.85
2023-05-10T12:06:54.980Z,6.68
2023-05-10T12:09:31.856Z,7.85
2023-05-10T12:12:03.790Z,9.35
2023-05-10T12:14:36.566Z,5.85
2023-05-10T12:17:04.273Z,8.43
2023-05-10T12:19:38.582Z,7.45
2023-05-10T12:22:06.669Z,5.63
2023-05-10T12:24:35.740Z,8.48
2023-05-10T12:27:06.277Z,10.48
2023-05-10T12:29:35.513Z,7.13
2023-05-10T12:32:03.393Z,13.40
2023-05-10T12:34:33.463Z,11.90
2023-05-10T12:37:01.890Z,12.40
2023-05-10T12:39:40.200Z,5.60
2023-05-10T12:42:08.249Z,9.00
2023-05-10T12:44:37.587Z,8.15
2023-05-10T12:47:05.314Z,6.07
2023-05-10T12:49:33.090Z,5.65
2023-05-10T12:52:00.754Z,10.90
2023-05-10T12:54:28.325Z,9.27
2023-05-10T12:56:56.200Z,7.68
2023-05-10T12:59:24.041Z,6.28
2023-05-10T13:01:53.036Z,6.82
2023-05-10T13:04:20.754Z,8.55
2023-05-10T13:06:48.968Z,10.57
2023-05-10T13:09:16.526Z,9.65
2023-05-10T13:11:44.373Z,8.70
2023-05-10T13:14:12.241Z,5.90
2023-05-10T13:16:39.857Z,6.72
2023-05-10T13:19:09.105Z,6.70
2023-05-10T13:21:37.450Z,6.07
2023-05-10T13:24:05.132Z,8.75
2023-05-10T13:26:32.945Z,10.68
2023-05-10T13:29:00.802Z,10.18
2023-05-10T13:31:28.579Z,8.10
2023-05-10T13:33:56.824Z,9.63
2023-05-10T13:36:25.904Z,7.75
2023-05-10T13:38:53.582Z,8.30
2023-05-10T13:41:21.329Z,8.35
2023-05-10T13:43:48.916Z,7.63
2023-05-10T13:46:16.486Z,7.88
2023-05-10T13:48:44.291Z,6.57
2023-05-10T13:51:11.982Z,7.20
2023-05-10T13:53:40.992Z,6.65
2023-05-10T13:56:08.830Z,7.85
2023-05-10T13:58:36.777Z,7.80
2023-05-10T14:01:04.408Z,10.35
2023-05-10T14:03:32.310Z,8.98
2023-05-10T14:06:00.188Z,7.32
2023-05-10T14:08:27.793Z,9.45
2023-05-10T14:10:57.055Z,8.05
2023-05-10T14:13:25.065Z,5.88
2023-05-10T14:15:53.798Z,8.63
2023-05-10T14:18:21.793Z,8.50
2023-05-10T14:20:49.923Z,7.65
2023-05-10T14:23:17.598Z,9.27
2023-05-10T14:25:45.287Z,5.90
2023-05-10T14:28:14.361Z,8.60
2023-05-10T14:30:41.988Z,7.88
2023-05-10T14:33:11.632Z,11.00
2023-05-10T14:35:39.484Z,7.72
2023-05-10T14:38:07.116Z,6.10
2023-05-10T14:40:34.881Z,8.77
2023-05-10T14:43:02.718Z,8.38
2023-05-10T14:45:31.844Z,4.97
2023-05-10T14:47:59.709Z,10.00
2023-05-10T14:50:36.619Z,5.53
2023-05-10T14:53:05.276Z,8.75
2023-05-10T14:55:32.961Z,10.32
2023-05-10T14:58:00.566Z,8.98
2023-05-10T15:00:33.039Z,10.07
2023-05-10T15:03:01.248Z,10.38
2023-05-10T15:05:29.479Z,9.80
2023-05-10T15:07:57.798Z,6.88
2023-05-10T15:10:25.588Z,7.05
2023-05-10T15:12:53.168Z,8.80
2023-05-10T15:15:21.104Z,10.77
2023-05-10T15:17:50.263Z,9.98
2023-05-10T15:20:18.272Z,10.50
2023-05-10T15:22:46.059Z,10.10
2023-05-10T15:25:14.182Z,9.32
2023-05-10T15:27:41.904Z,8.07
2023-05-10T15:30:10.723Z,8.82
2023-05-10T15:32:38.965Z,13.40
2023-05-10T15:35:09.483Z,9.70
2023-05-10T15:37:37.463Z,9.93
2023-05-10T15:40:06.334Z,11.93
2023-05-10T15:42:34.104Z,10.82
2023-05-10T15:45:01.944Z,6.57
2023-05-10T15:47:31.312Z,10.60
2023-05-10T15:49:58.899Z,9.77
2023-05-10T15:52:28.025Z,9.07
2023-05-10T15:54:55.826Z,12.95
2023-05-10T15:57:23.434Z,6.70
2023-05-10T15:59:51.165Z,10.93
2023-05-10T16:02:18.939Z,7.70
2023-05-10T16:04:46.557Z,8.63
2023-05-10T16:07:14.431Z,8.65
2023-05-10T16:09:43.656Z,10.32
2023-05-10T16:12:11.619Z,10.40
2023-05-10T16:14:39.477Z,11.05
2023-05-10T16:17:07.296Z,12.80
2023-05-10T16:19:34.980Z,11.60
2023-05-10T16:22:05.550Z,12.10
2023-05-10T16:24:33.524Z,12.73
2023-05-10T16:27:02.500Z,10.27
2023-05-10T16:29:30.255Z,8.55
2023-05-10T16:31:57.996Z,11.27
2023-05-10T16:34:25.718Z,10.32
2023-05-10T16:36:53.456Z,11.98
2023-05-10T16:39:21.599Z,9.55
2023-05-10T16:41:49.334Z,7.95
2023-05-10T16:44:20.572Z,12.48
2023-05-10T16:46:49.064Z,9.15
2023-05-10T16:49:16.713Z,14.85
2023-05-10T16:51:44.726Z,11.73
2023-05-10T16:54:12.402Z,7.53
2023-05-10T16:56:39.973Z,10.90
2023-05-10T16:59:07.666Z,14.43
2023-05-10T17:01:37.866Z,11.40
2023-05-10T17:04:11.783Z,9.45
2023-05-10T17:06:39.800Z,7.97
2023-05-10T17:09:07.479Z,7.10
2023-05-10T17:11:38.348Z,7.80
2023-05-10T17:14:06.340Z,7.55
2023-05-10T17:16:35.354Z,8.27
2023-05-10T17:19:05.154Z,7.07
2023-05-10T17:21:33.092Z,7.28
2023-05-10T17:24:00.699Z,6.20
2023-05-10T17:26:28.370Z,6.85
2023-05-10T17:28:57.403Z,9.05
2023-05-10T17:31:25.362Z,10.48
2023-05-10T17:34:04.708Z,10.88
2023-05-10T17:36:35.287Z,11.45
2023-05-10T17:39:03.167Z,10.02
2023-05-10T17:41:33.266Z,8.68
2023-05-10T17:44:01.070Z,7.75
2023-05-10T17:46:29.439Z,5.45
2023-05-10T17:48:59.806Z,6.65
2023-05-10T17:51:28.205Z,8.13
2023-05-10T17:53:57.920Z,5.88
2023-05-10T17:56:25.704Z,6.75
2023-05-10T17:58:53.525Z,8.05
2023-05-10T18:01:21.495Z,7.75
2023-05-10T18:03:49.994Z,7.25
2023-05-10T18:06:17.880Z,7.20
2023-05-10T18:08:45.804Z,7.47
2023-05-10T18:11:14.962Z,7.25
2023-05-10T18:13:43.006Z,6.85
2023-05-10T18:16:20.913Z,7.55
2023-05-10T18:18:49.801Z,27.40
2023-05-10T18:21:20.746Z,21.40
2023-05-10T18:23:48.480Z,53.35
2023-05-10T18:26:17.720Z,16.90
2023-05-10T18:28:45.507Z,30.27
2023-05-10T18:31:13.175Z,34.90
2023-05-10T18:33:44.423Z,24.02
2023-05-10T18:36:12.640Z,15.77
2023-05-10T18:38:40.719Z,12.85
2023-05-10T18:41:08.745Z,13.00
2023-05-10T18:43:39.254Z,10.50
2023-05-10T18:46:07.169Z,8.65
2023-05-10T18:48:35.576Z,8.73
2023-05-10T18:51:03.414Z,10.15
2023-05-10T18:53:31.159Z,10.60
2023-05-10T18:55:59.185Z,8.75
2023-05-10T18:58:29.027Z,9.88
2023-05-10T19:00:59.949Z,20.17
2023-05-10T19:03:31.325Z,11.40
2023-05-10T19:05:58.887Z,13.77
2023-05-10T19:08:26.728Z,17.45
2023-05-10T19:10:55.061Z,26.48
2023-05-10T19:13:22.727Z,28.33
2023-05-10T19:16:02.818Z,30.10
2023-05-10T19:18:34.629Z,29.70
2023-05-10T19:23:32.490Z,28.77
2023-05-10T19:26:00.625Z,40.40
2023-05-10T19:28:28.192Z,33.30
2023-05-10T19:30:56.117Z,32.50
2023-05-10T19:33:26.796Z,58.95
2023-05-10T19:35:55.409Z,83.03
2023-05-10T19:38:23.767Z,44.65
2023-05-10T19:40:52.113Z,35.17
2023-05-10T19:43:20.496Z,43.30
2023-05-10T19:45:48.617Z,37.55
2023-05-10T19:48:16.656Z,33.67
2023-05-10T19:50:46.026Z,17.48
2023-05-10T19:53:13.841Z,32.22
2023-05-10T19:55:41.404Z,53.40
2023-05-10T19:58:09.180Z,28.75
2023-05-10T20:00:37.710Z,31.10
2023-05-10T20:03:06.377Z,34.42
2023-05-10T20:05:36.255Z,38.23
2023-05-10T20:08:05.487Z,67.43
2023-05-10T20:10:33.086Z,36.08
2023-05-10T20:13:01.309Z,39.92
2023-05-10T20:15:29.904Z,79.95
2023-05-10T20:17:57.562Z,40.63
2023-05-10T20:20:25.249Z,32.22
2023-05-10T20:22:53.142Z,34.10
2023-05-10T20:25:22.353Z,38.92
2023-05-10T20:27:49.897Z,28.15
2023-05-10T20:30:18.360Z,24.80
2023-05-10T20:32:46.153Z,37.60
2023-05-10T20:35:13.731Z,38.15
2023-05-10T20:37:41.863Z,45.50
2023-05-10T20:40:10.161Z,62.85
2023-05-10T20:42:39.478Z,29.73
2023-05-10T20:45:10.957Z,24.27
2023-05-10T20:47:38.782Z,25.20
2023-05-10T20:50:07.391Z,21.38
2023-05-10T20:52:35.344Z,19.50
2023-05-10T20:55:02.880Z,21.35
2023-05-10T20:57:30.691Z,24.88
2023-05-10T21:00:00.052Z,19.55
2023-05-10T21:02:27.775Z,25.55
2023-05-10T21:04:57.769Z,28.33
2023-05-10T21:07:26.304Z,28.60
2023-05-10T21:09:53.881Z,16.92
2023-05-10T21:12:21.441Z,16.13
2023-05-10T21:14:49.433Z,16.67
2023-05-10T21:17:20.134Z,19.92
2023-05-10T21:19:48.258Z,15.98
2023-05-10T21:22:16.101Z,15.32
2023-05-10T21:24:44.033Z,22.10
2023-05-10T21:27:11.616Z,41.47
2023-05-10T21:29:39.875Z,24.30
2023-05-10T21:32:07.572Z,19.00
2023-05-10T21:34:36.663Z,20.88
2023-05-10T21:37:04.543Z,14.55
2023-05-10T21:39:32.207Z,15.27
2023-05-10T21:41:59.777Z,20.20
2023-05-10T21:44:27.769Z,19.08
2023-05-10T21:46:55.375Z,15.23
2023-05-10T21:49:22.938Z,17.83
2023-05-10T21:51:52.201Z,14.77
2023-05-10T21:54:19.848Z,15.18
2023-05-10T21:56:47.675Z,14.40
2023-05-10T21:59:15.732Z,14.07
2023-05-10T22:01:43.341Z,14.55
2023-05-10T22:04:10.914Z,15.77
2023-05-10T22:06:39.414Z,13.65
2023-05-10T22:09:08.407Z,14.10
2023-05-10T22:11:36.024Z,27.52
2023-05-10T22:14:04.294Z,16.30
2023-05-10T22:16:32.343Z,18.83
2023-05-10T22:19:00.062Z,15.27
2023-05-10T22:21:27.927Z,12.82
2023-05-10T22:23:55.580Z,13.13
2023-05-10T22:26:25.444Z,12.30
2023-05-10T22:28:53.276Z,15.05
2023-05-10T22:31:20.911Z,13.77
2023-05-10T22:33:48.508Z,13.55
2023-05-10T22:36:16.371Z,11.70
2023-05-10T22:38:43.955Z,14.52
2023-05-10T22:41:11.527Z,12.52
2023-05-10T22:43:40.999Z,13.93
2023-05-10T22:46:08.649Z,13.55
2023-05-10T22:48:37.034Z,11.98
2023-05-10T22:51:05.087Z,14.80
2023-05-10T22:53:32.786Z,20.05
2023-05-10T22:56:00.527Z,19.77
2023-05-10T22:58:28.458Z,24.83
2023-05-10T23:00:57.551Z,29.35
2023-05-10T23:03:25.775Z,18.90
2023-05-10T23:05:54.010Z,19.42
2023-05-10T23:08:21.971Z,22.27
2023-05-10T23:10:49.862Z,16.85
2023-05-10T23:13:17.890Z,19.10
2023-05-10T23:15:45.505Z,15.73
2023-05-10T23:18:14.459Z,15.23
2023-05-10T23:20:42.607Z,18.05
2023-05-10T23:23:10.398Z,14.00
2023-05-10T23:25:38.177Z,14.18
2023-05-10T23:28:06.048Z,14.07
2023-05-10T23:30:34.051Z,17.33
2023-05-10T23:33:01.688Z,16.77
2023-05-10T23:35:31.198Z,19.90
2023-05-10T23:37:58.880Z,27.27
2023-05-10T23:40:26.424Z,31.52
2023-05-10T23:42:54.541Z,28.05
2023-05-10T23:45:22.055Z,28.15
2023-05-10T23:47:49.643Z,22.85
2023-05-10T23:50:18.153Z,26.90
2023-05-10T23:52:47.465Z,24.80
2023-05-10T23:55:15.280Z,19.05
2023-05-10T23:57:43.278Z,21.80
